Pine, Arizona
Current Conditions -  °F | °C
As of 9:15 AM on Friday 24 Oct 2014 (Local Time) from KPAN Reporting Station
Clear Clear  
Wind Chill: 68°   Ceiling: Unl
Heat Index: 68°   Visibility: 10mi
Dew Point: 45°   Wind: 5mph
Humidity: 43%   Direction: 110°ESE
Pressure: 30.33"   Gusts: NA
Location:  34.38°N, 111.46°W
Report Text: KPAN 241615Z AUTO 11004KT 10SM CLR 20/07 A3033 RMK AO2
Loading
Personal Weather Stations






























Interactive Weather Map
Tropical Storm Tracking
New forecast layout! Learn more

10-Day Weather Forecast

Advertisements
Track Severe Weather on mobile